createdAt,value
2018-08-17T00:00:07.341Z,19.10
2018-08-17T00:02:36.000Z,19.20
2018-08-17T00:05:04.610Z,19.30
2018-08-17T00:07:33.137Z,19.30
2018-08-17T00:10:02.487Z,19.20
2018-08-17T00:12:31.007Z,19.20
2018-08-17T00:14:59.822Z,19.10
2018-08-17T00:17:28.319Z,19.10
2018-08-17T00:19:57.103Z,19.10
2018-08-17T00:22:25.850Z,19.00
2018-08-17T00:24:54.422Z,19.00
2018-08-17T00:27:22.910Z,19.10
2018-08-17T00:29:51.720Z,19.10
2018-08-17T00:32:20.393Z,19.00
2018-08-17T00:34:49.095Z,18.90
2018-08-17T00:37:17.583Z,19.00
2018-08-17T00:39:46.180Z,18.90
2018-08-17T00:42:14.684Z,18.90
2018-08-17T00:44:43.252Z,19.00
2018-08-17T00:47:11.686Z,19.10
2018-08-17T00:49:40.167Z,19.20
2018-08-17T00:52:08.683Z,19.00
2018-08-17T00:54:37.150Z,18.90
2018-08-17T00:57:05.729Z,18.70
2018-08-17T00:59:34.210Z,18.60
2018-08-17T01:02:02.689Z,18.60
2018-08-17T01:04:31.187Z,18.70
2018-08-17T01:06:59.651Z,18.60
2018-08-17T01:09:28.168Z,18.60
2018-08-17T01:11:56.673Z,18.60
2018-08-17T01:14:25.428Z,18.50
2018-08-17T01:16:53.935Z,18.40
2018-08-17T01:19:22.400Z,18.30
2018-08-17T01:21:50.911Z,18.50
2018-08-17T01:24:19.391Z,18.80
2018-08-17T01:26:47.916Z,19.10
2018-08-17T01:29:16.406Z,18.90
2018-08-17T01:31:44.925Z,18.70
2018-08-17T01:34:13.457Z,18.60
2018-08-17T01:36:41.965Z,18.50
2018-08-17T01:39:11.002Z,18.40
2018-08-17T01:41:39.731Z,18.40
2018-08-17T01:44:08.279Z,18.40
2018-08-17T01:46:36.703Z,18.40
2018-08-17T01:49:05.491Z,18.40
2018-08-17T01:51:34.032Z,18.30
2018-08-17T01:54:02.458Z,18.20
2018-08-17T01:56:31.054Z,18.30
2018-08-17T01:58:59.491Z,18.20
2018-08-17T02:01:28.366Z,18.10
2018-08-17T02:03:56.843Z,18.10
2018-08-17T02:06:25.327Z,18.00
2018-08-17T02:08:54.107Z,18.10
2018-08-17T02:11:22.672Z,18.10
2018-08-17T02:13:51.139Z,18.10
2018-08-17T02:16:19.677Z,18.20
2018-08-17T02:18:48.168Z,18.10
2018-08-17T02:21:16.667Z,18.00
2018-08-17T02:23:45.091Z,17.90
2018-08-17T02:26:13.542Z,17.90
2018-08-17T02:28:42.000Z,17.90
2018-08-17T02:31:10.784Z,17.90
2018-08-17T02:33:39.235Z,18.00
2018-08-17T02:36:07.726Z,18.20
2018-08-17T02:38:36.173Z,18.30
2018-08-17T02:41:04.955Z,18.20
2018-08-17T02:43:33.483Z,18.00
2018-08-17T02:46:02.139Z,17.90
2018-08-17T02:48:30.843Z,17.80
2018-08-17T02:50:59.311Z,17.80
2018-08-17T02:53:27.741Z,17.80
2018-08-17T02:55:56.232Z,17.70
2018-08-17T02:58:24.923Z,17.70
2018-08-17T03:00:53.438Z,17.80
2018-08-17T03:03:21.887Z,17.70
2018-08-17T03:05:50.339Z,17.80
2018-08-17T03:08:18.935Z,17.80
2018-08-17T03:10:47.412Z,17.80
2018-08-17T03:13:15.851Z,17.70
2018-08-17T03:15:44.342Z,17.70
2018-08-17T03:18:12.777Z,17.70
2018-08-17T03:20:41.236Z,17.80
2018-08-17T03:23:09.688Z,18.00
2018-08-17T03:25:38.149Z,18.00
2018-08-17T03:28:06.817Z,18.10
2018-08-17T03:30:35.290Z,17.90
2018-08-17T03:33:03.803Z,17.90
2018-08-17T03:35:32.356Z,17.80
2018-08-17T03:38:00.838Z,17.70
2018-08-17T03:40:29.553Z,17.70
2018-08-17T03:42:58.086Z,17.70
2018-08-17T03:45:26.560Z,17.70
2018-08-17T03:47:55.056Z,17.70
2018-08-17T03:50:23.569Z,17.70
2018-08-17T03:52:52.094Z,17.60
2018-08-17T03:55:20.535Z,17.70
2018-08-17T03:57:48.964Z,17.70
2018-08-17T04:00:20.330Z,17.70
2018-08-17T04:02:48.815Z,17.70
2018-08-17T04:05:17.271Z,17.80
2018-08-17T04:07:45.756Z,17.80
2018-08-17T04:10:15.112Z,17.80
2018-08-17T04:12:43.613Z,17.80
2018-08-17T04:15:12.047Z,18.10
2018-08-17T04:17:40.509Z,18.20
2018-08-17T04:20:09.253Z,18.10
2018-08-17T04:22:38.006Z,18.10
2018-08-17T04:25:06.786Z,18.10
2018-08-17T04:27:35.268Z,18.10
2018-08-17T04:30:03.818Z,18.00
2018-08-17T04:32:32.253Z,17.90
2018-08-17T04:35:00.942Z,18.10
2018-08-17T04:37:29.418Z,18.00
2018-08-17T04:39:57.872Z,18.00
2018-08-17T04:42:26.408Z,18.00
2018-08-17T04:44:54.885Z,18.10
2018-08-17T04:47:23.357Z,18.10
2018-08-17T04:49:51.858Z,18.10
2018-08-17T04:52:20.279Z,18.10
2018-08-17T04:54:48.966Z,18.30
2018-08-17T04:57:17.410Z,18.30
2018-08-17T04:59:46.226Z,18.20
2018-08-17T05:02:14.646Z,18.20
2018-08-17T05:04:43.134Z,18.20
2018-08-17T05:07:11.932Z,18.20
2018-08-17T05:09:47.300Z,18.20
2018-08-17T05:12:15.728Z,18.40
2018-08-17T05:14:45.047Z,18.30
2018-08-17T05:17:13.467Z,18.30
2018-08-17T05:19:41.932Z,18.20
2018-08-17T05:22:10.391Z,18.30
2018-08-17T05:24:38.807Z,18.30
2018-08-17T05:27:07.302Z,18.30
2018-08-17T05:29:35.711Z,18.30
2018-08-17T05:32:04.207Z,18.20
2018-08-17T05:34:32.638Z,18.20
2018-08-17T05:37:01.096Z,18.20
2018-08-17T05:39:29.615Z,18.30
2018-08-17T05:41:58.502Z,18.30
2018-08-17T05:44:26.995Z,18.40
2018-08-17T05:46:56.067Z,18.50
2018-08-17T05:49:24.565Z,18.60
2018-08-17T05:51:53.025Z,18.60
2018-08-17T05:54:21.515Z,18.70
2018-08-17T05:56:49.987Z,18.70
2018-08-17T05:59:18.427Z,18.60
2018-08-17T06:01:46.956Z,18.70
2018-08-17T06:04:15.448Z,18.80
2018-08-17T06:06:44.224Z,19.00
2018-08-17T06:09:12.674Z,19.10
2018-08-17T06:11:41.490Z,19.30
2018-08-17T06:14:09.932Z,19.50
2018-08-17T06:16:39.052Z,19.60
2018-08-17T06:19:07.528Z,19.80
2018-08-17T06:21:36.003Z,19.80
2018-08-17T06:24:04.544Z,19.90
2018-08-17T06:26:33.039Z,20.10
2018-08-17T06:29:02.012Z,20.30
2018-08-17T06:31:30.482Z,20.40
2018-08-17T06:33:59.211Z,20.50
2018-08-17T06:36:27.662Z,20.50
2018-08-17T06:38:56.108Z,20.60
2018-08-17T06:41:24.563Z,20.60
2018-08-17T06:43:53.075Z,20.80
2018-08-17T06:46:21.528Z,20.90
2018-08-17T06:48:50.256Z,20.80
2018-08-17T06:51:18.701Z,21.00
2018-08-17T06:53:47.406Z,21.10
2018-08-17T06:56:15.891Z,21.20
2018-08-17T06:58:44.312Z,21.30
2018-08-17T07:01:13.042Z,21.50
2018-08-17T07:03:41.981Z,21.50
2018-08-17T07:06:10.487Z,21.80
2018-08-17T07:08:38.966Z,22.10
2018-08-17T07:11:07.403Z,22.40
2018-08-17T07:13:35.826Z,22.40
2018-08-17T07:16:04.336Z,22.60
2018-08-17T07:18:33.174Z,22.70
2018-08-17T07:21:01.969Z,22.60
2018-08-17T07:23:30.698Z,22.70
2018-08-17T07:25:59.193Z,22.90
2018-08-17T07:28:27.697Z,23.10
2018-08-17T07:30:56.135Z,22.90
2018-08-17T07:33:24.971Z,22.90
2018-08-17T07:35:53.461Z,22.70
2018-08-17T07:38:22.113Z,22.40
2018-08-17T07:40:50.869Z,22.20
2018-08-17T07:43:19.622Z,22.30
2018-08-17T07:45:48.119Z,22.50
2018-08-17T07:48:16.837Z,22.80
2018-08-17T07:50:45.368Z,23.10
2018-08-17T07:53:13.839Z,23.30
2018-08-17T07:55:42.261Z,23.50
2018-08-17T07:58:10.739Z,23.30
2018-08-17T08:00:39.212Z,23.60
2018-08-17T08:03:07.645Z,23.40
2018-08-17T08:05:36.215Z,23.70
2018-08-17T08:08:04.659Z,23.90
2018-08-17T08:10:33.427Z,24.10
2018-08-17T08:13:02.141Z,24.30
2018-08-17T08:15:30.531Z,24.40
2018-08-17T08:17:59.000Z,24.60
2018-08-17T08:20:31.926Z,24.80
2018-08-17T08:23:11.887Z,25.00
2018-08-17T08:25:40.824Z,25.10
2018-08-17T08:28:09.342Z,24.50
2018-08-17T08:30:37.750Z,24.90
2018-08-17T08:33:06.275Z,25.10
2018-08-17T08:35:34.774Z,24.90
2018-08-17T08:38:03.226Z,25.00
2018-08-17T08:40:31.956Z,25.20
2018-08-17T08:43:00.410Z,25.30
2018-08-17T08:45:28.967Z,25.50
2018-08-17T08:47:57.438Z,25.40
2018-08-17T08:50:25.874Z,25.40
2018-08-17T08:52:54.353Z,25.80
2018-08-17T08:55:23.115Z,25.80
2018-08-17T08:57:51.558Z,25.90
2018-08-17T09:00:20.060Z,25.60
2018-08-17T09:02:48.935Z,25.40
2018-08-17T09:05:17.394Z,25.70
2018-08-17T09:07:45.863Z,26.00
2018-08-17T09:10:14.311Z,25.90
2018-08-17T09:12:42.786Z,26.20
2018-08-17T09:15:12.242Z,26.20
2018-08-17T09:17:41.782Z,26.50
2018-08-17T09:20:12.683Z,26.80
2018-08-17T09:22:41.360Z,27.00
2018-08-17T09:25:10.135Z,26.90
2018-08-17T09:27:38.612Z,27.10
2018-08-17T09:30:09.781Z,26.80
2018-08-17T09:32:38.534Z,26.90
2018-08-17T09:35:07.125Z,27.20
2018-08-17T09:37:35.927Z,27.20
2018-08-17T09:40:05.002Z,27.40
2018-08-17T09:42:33.719Z,27.40
2018-08-17T09:45:02.237Z,27.30
2018-08-17T09:47:30.770Z,27.50
2018-08-17T09:49:59.484Z,27.70
2018-08-17T09:52:27.942Z,27.90
2018-08-17T09:54:56.358Z,27.60
2018-08-17T09:57:24.815Z,27.90
2018-08-17T09:59:53.279Z,27.90
2018-08-17T10:02:29.814Z,28.10
2018-08-17T10:05:03.673Z,28.40
2018-08-17T10:08:37.522Z,28.50
2018-08-17T10:11:06.094Z,28.50
2018-08-17T10:13:34.511Z,28.80
2018-08-17T10:16:03.013Z,28.70
2018-08-17T10:18:37.031Z,28.80
2018-08-17T10:21:05.540Z,28.80
2018-08-17T10:23:33.966Z,28.70
2018-08-17T10:26:02.394Z,29.00
2018-08-17T10:28:30.856Z,29.00
2018-08-17T10:30:59.276Z,29.20
2018-08-17T10:33:27.787Z,29.30
2018-08-17T10:35:56.470Z,29.60
2018-08-17T10:38:26.427Z,29.30
2018-08-17T10:40:54.934Z,29.50
2018-08-17T10:43:23.430Z,29.10
2018-08-17T10:45:51.909Z,29.30
2018-08-17T10:48:20.340Z,29.40
2018-08-17T10:50:48.871Z,29.70
2018-08-17T10:53:17.316Z,29.80
2018-08-17T10:55:47.812Z,29.30
2018-08-17T10:58:17.584Z,29.30
2018-08-17T11:00:46.056Z,29.70
2018-08-17T11:03:14.504Z,30.10
2018-08-17T11:05:42.982Z,30.30
2018-08-17T11:08:11.469Z,30.40
2018-08-17T11:10:40.188Z,30.20
2018-08-17T11:13:09.231Z,30.50
2018-08-17T11:15:37.689Z,30.40
2018-08-17T11:18:06.213Z,30.30
2018-08-17T11:20:34.676Z,30.60
2018-08-17T11:23:03.155Z,30.50
2018-08-17T11:25:31.616Z,30.80
2018-08-17T11:28:00.056Z,30.50
2018-08-17T11:30:28.565Z,30.80
2018-08-17T11:32:57.053Z,30.90
2018-08-17T11:35:25.514Z,30.90
2018-08-17T11:37:54.214Z,31.10
2018-08-17T11:40:22.674Z,31.30
2018-08-17T11:42:51.596Z,31.50
2018-08-17T11:45:22.279Z,31.50
2018-08-17T11:47:51.315Z,31.50
2018-08-17T11:50:22.322Z,31.30
2018-08-17T11:52:57.190Z,31.70
2018-08-17T11:55:27.149Z,31.60
2018-08-17T11:57:55.776Z,31.50
2018-08-17T12:00:24.566Z,31.20
2018-08-17T12:02:53.060Z,31.30
2018-08-17T12:05:21.493Z,31.00
2018-08-17T12:07:50.248Z,31.30
2018-08-17T12:10:19.006Z,31.50
2018-08-17T12:12:47.487Z,31.80
2018-08-17T12:15:16.437Z,32.20
2018-08-17T12:17:44.957Z,31.80
2018-08-17T12:20:13.396Z,32.20
2018-08-17T12:22:41.883Z,32.50
2018-08-17T12:25:10.878Z,32.30
2018-08-17T12:27:41.650Z,32.20
2018-08-17T12:30:10.134Z,32.30
2018-08-17T12:32:38.842Z,32.10
2018-08-17T12:35:07.380Z,31.80
2018-08-17T12:37:35.824Z,31.50
2018-08-17T12:40:04.639Z,31.80
2018-08-17T12:42:36.468Z,31.90
2018-08-17T12:45:18.010Z,32.10
2018-08-17T12:47:46.795Z,32.00
2018-08-17T12:50:15.327Z,32.00
2018-08-17T12:52:43.856Z,32.20
2018-08-17T12:55:12.319Z,32.50
2018-08-17T12:57:41.643Z,32.60
2018-08-17T13:00:10.875Z,32.70
2018-08-17T13:02:39.363Z,32.90
2018-08-17T13:05:08.087Z,33.10
2018-08-17T13:07:36.877Z,33.10
2018-08-17T13:10:05.521Z,32.50
2018-08-17T13:12:34.552Z,32.80
2018-08-17T13:15:03.044Z,32.90
2018-08-17T13:17:37.908Z,33.10
2018-08-17T13:20:06.830Z,33.30
2018-08-17T13:22:35.557Z,33.30
2018-08-17T13:25:03.994Z,32.90
2018-08-17T13:27:32.731Z,32.80
2018-08-17T13:30:01.799Z,32.80
2018-08-17T13:32:30.275Z,32.60
2018-08-17T13:34:58.683Z,32.60
2018-08-17T13:37:27.164Z,32.60
2018-08-17T13:39:56.254Z,32.70
2018-08-17T13:42:24.947Z,32.50
2018-08-17T13:44:53.455Z,32.40
2018-08-17T13:47:21.940Z,32.40
2018-08-17T13:49:50.350Z,31.90
2018-08-17T13:52:18.799Z,32.00
2018-08-17T13:54:47.298Z,32.30
2018-08-17T13:57:15.702Z,32.60
2018-08-17T13:59:44.404Z,32.50
2018-08-17T14:02:12.982Z,32.20
2018-08-17T14:04:41.310Z,32.40
2018-08-17T14:07:10.163Z,32.40
2018-08-17T14:09:38.669Z,32.50
2018-08-17T14:12:07.853Z,32.70
2018-08-17T14:14:36.271Z,32.80
2018-08-17T14:17:04.881Z,32.90
2018-08-17T14:19:33.650Z,32.90
2018-08-17T14:22:02.774Z,33.30
2018-08-17T14:24:31.228Z,33.10
2018-08-17T14:27:00.030Z,33.10
2018-08-17T14:29:28.493Z,32.90
2018-08-17T14:31:57.243Z,32.90
2018-08-17T14:34:25.808Z,32.70
2018-08-17T14:36:54.719Z,32.60
2018-08-17T14:39:23.159Z,32.70
2018-08-17T14:41:58.069Z,32.60
2018-08-17T14:44:27.560Z,32.70
2018-08-17T14:46:56.276Z,32.50
2018-08-17T14:49:25.481Z,32.50
2018-08-17T14:51:54.066Z,32.70
2018-08-17T14:54:22.941Z,32.50
2018-08-17T14:56:51.670Z,32.50
2018-08-17T14:59:20.187Z,32.70
2018-08-17T15:01:48.669Z,32.80
2018-08-17T15:04:17.159Z,32.80
2018-08-17T15:06:45.643Z,32.90
2018-08-17T15:09:14.949Z,32.70
2018-08-17T15:11:43.993Z,32.50
2018-08-17T15:14:14.682Z,32.30
2018-08-17T15:16:43.615Z,32.00
2018-08-17T15:19:12.203Z,31.90
2018-08-17T15:21:41.068Z,31.50
2018-08-17T15:24:10.353Z,31.10
2018-08-17T15:26:39.014Z,31.10
2018-08-17T15:29:07.503Z,31.00
2018-08-17T15:31:36.042Z,30.60
2018-08-17T15:34:05.267Z,30.40
2018-08-17T15:36:33.834Z,30.30
2018-08-17T15:39:02.382Z,30.50
2018-08-17T15:41:30.931Z,30.60
2018-08-17T15:43:59.363Z,30.70
2018-08-17T15:46:27.948Z,30.60
2018-08-17T15:48:57.060Z,30.50
2018-08-17T15:51:25.538Z,30.20
2018-08-17T15:53:54.108Z,30.30
2018-08-17T15:56:22.534Z,30.20
2018-08-17T15:58:51.031Z,30.10
2018-08-17T16:01:19.474Z,30.20
2018-08-17T16:03:47.931Z,30.20
2018-08-17T16:06:16.691Z,30.20
2018-08-17T16:08:45.175Z,30.30
2018-08-17T16:11:13.659Z,30.40
2018-08-17T16:13:42.440Z,30.50
2018-08-17T16:16:10.894Z,30.60
2018-08-17T16:18:39.375Z,30.40
2018-08-17T16:21:07.842Z,30.30
2018-08-17T16:23:36.327Z,30.30
2018-08-17T16:26:05.047Z,29.90
2018-08-17T16:28:33.526Z,29.80
2018-08-17T16:31:01.960Z,29.30
2018-08-17T16:33:30.957Z,29.20
2018-08-17T16:35:59.443Z,29.10
2018-08-17T16:38:27.912Z,29.00
2018-08-17T16:40:57.019Z,28.90
2018-08-17T16:43:36.743Z,28.60
2018-08-17T16:46:05.307Z,28.20
2018-08-17T16:48:33.746Z,28.00
2018-08-17T16:51:02.228Z,28.20
2018-08-17T16:53:30.648Z,28.20
2018-08-17T16:55:59.126Z,28.30
2018-08-17T16:58:27.942Z,28.40
2018-08-17T17:00:57.141Z,28.40
2018-08-17T17:03:25.583Z,28.30
2018-08-17T17:05:56.895Z,28.00
2018-08-17T17:08:25.343Z,27.90
2018-08-17T17:10:54.167Z,27.70
2018-08-17T17:13:22.686Z,27.70
2018-08-17T17:15:51.187Z,27.70
2018-08-17T17:18:19.929Z,27.80
2018-08-17T17:20:48.447Z,27.90
2018-08-17T17:23:16.863Z,27.90
2018-08-17T17:25:45.352Z,27.70
2018-08-17T17:28:13.776Z,27.80
2018-08-17T17:30:47.924Z,27.70
2018-08-17T17:33:16.388Z,27.50
2018-08-17T17:35:45.234Z,27.40
2018-08-17T17:38:14.041Z,27.30
2018-08-17T17:40:42.725Z,27.20
2018-08-17T17:43:11.344Z,27.20
2018-08-17T17:45:40.523Z,26.90
2018-08-17T17:48:15.851Z,26.70
2018-08-17T17:50:44.595Z,26.70
2018-08-17T17:53:13.058Z,26.60
2018-08-17T17:55:45.711Z,26.60
2018-08-17T17:58:14.741Z,26.40
2018-08-17T18:00:54.104Z,26.20
2018-08-17T18:03:22.659Z,26.20
2018-08-17T18:05:51.096Z,26.00
2018-08-17T18:08:20.348Z,25.90
2018-08-17T18:10:49.280Z,25.70
2018-08-17T18:13:17.807Z,25.60
2018-08-17T18:15:46.281Z,25.40
2018-08-17T18:18:14.715Z,25.30
2018-08-17T18:20:43.196Z,25.20
2018-08-17T18:23:11.633Z,25.30
2018-08-17T18:25:40.131Z,25.20
2018-08-17T18:28:08.878Z,25.00
2018-08-17T18:30:37.351Z,24.90
2018-08-17T18:33:06.428Z,24.80
2018-08-17T18:35:35.232Z,24.80
2018-08-17T18:38:03.756Z,24.90
2018-08-17T18:40:32.239Z,24.80
2018-08-17T18:43:00.677Z,24.50
2018-08-17T18:45:29.196Z,24.60
2018-08-17T18:47:57.683Z,24.50
2018-08-17T18:50:26.173Z,24.40
2018-08-17T18:52:54.822Z,24.30
2018-08-17T18:55:23.262Z,24.50
2018-08-17T18:57:51.702Z,24.20
2018-08-17T19:00:20.513Z,24.10
2018-08-17T19:02:49.287Z,24.10
2018-08-17T19:05:18.153Z,24.10
2018-08-17T19:07:46.583Z,24.00
2018-08-17T19:10:15.069Z,23.90
2018-08-17T19:12:43.532Z,23.80
2018-08-17T19:15:12.988Z,23.80
2018-08-17T19:17:41.782Z,23.70
2018-08-17T19:20:11.784Z,23.70
2018-08-17T19:22:42.572Z,23.60
2018-08-17T19:25:12.590Z,23.50
2018-08-17T19:27:41.794Z,23.60
2018-08-17T19:30:24.595Z,23.50
2018-08-17T19:32:54.520Z,23.50
2018-08-17T19:35:23.335Z,23.30
2018-08-17T19:37:52.507Z,23.20
2018-08-17T19:40:22.036Z,23.20
2018-08-17T19:42:50.772Z,23.10
2018-08-17T19:45:20.679Z,23.10
2018-08-17T19:47:49.355Z,23.00
2018-08-17T19:50:17.824Z,23.00
2018-08-17T19:52:46.344Z,23.10
2018-08-17T19:55:15.058Z,22.90
2018-08-17T19:57:43.867Z,22.80
2018-08-17T20:00:12.999Z,22.70
2018-08-17T20:02:41.833Z,22.80
2018-08-17T20:05:10.824Z,22.70
2018-08-17T20:07:39.640Z,22.80
2018-08-17T20:10:09.370Z,22.60
2018-08-17T20:12:37.869Z,22.50
2018-08-17T20:15:06.623Z,22.50
2018-08-17T20:17:36.114Z,22.50
2018-08-17T20:20:07.015Z,22.40
2018-08-17T20:22:35.745Z,22.20
2018-08-17T20:25:10.259Z,22.20
2018-08-17T20:27:38.722Z,22.20
2018-08-17T20:30:13.080Z,22.20
2018-08-17T20:32:41.921Z,22.20
2018-08-17T20:35:10.700Z,22.20
2018-08-17T20:37:46.402Z,22.20
2018-08-17T20:40:15.031Z,22.10
2018-08-17T20:42:43.833Z,22.00
2018-08-17T20:45:12.664Z,22.00
2018-08-17T20:47:41.896Z,22.00
2018-08-17T20:50:15.438Z,22.00
2018-08-17T20:52:50.805Z,22.10
2018-08-17T20:55:20.022Z,21.80
2018-08-17T20:57:50.875Z,21.70
2018-08-17T21:00:19.477Z,21.70
2018-08-17T21:02:47.990Z,21.70
2018-08-17T21:05:16.739Z,21.70
2018-08-17T21:07:46.318Z,21.70
2018-08-17T21:10:14.856Z,21.70
2018-08-17T21:12:50.275Z,21.70
2018-08-17T21:15:19.148Z,21.70
2018-08-17T21:17:48.159Z,21.80
2018-08-17T21:20:16.640Z,21.70
2018-08-17T21:22:45.250Z,21.70
2018-08-17T21:25:13.738Z,21.60
2018-08-17T21:27:42.287Z,21.70
2018-08-17T21:30:11.587Z,21.60
2018-08-17T21:32:40.118Z,21.70
2018-08-17T21:35:08.620Z,21.80
2018-08-17T21:37:37.536Z,21.80
2018-08-17T21:40:12.701Z,21.70
2018-08-17T21:42:41.218Z,21.30
2018-08-17T21:45:09.973Z,21.40
2018-08-17T21:47:38.748Z,21.50
2018-08-17T21:50:15.029Z,21.30
2018-08-17T21:52:44.440Z,21.50
2018-08-17T21:55:13.210Z,21.40
2018-08-17T21:57:41.895Z,21.40
2018-08-17T22:00:19.544Z,21.40
2018-08-17T22:02:48.053Z,21.50
2018-08-17T22:05:34.166Z,21.50
2018-08-17T22:08:02.898Z,21.40
2018-08-17T22:10:31.964Z,21.30
2018-08-17T22:13:00.431Z,21.30
2018-08-17T22:15:30.254Z,21.30
2018-08-17T22:17:58.743Z,21.30
2018-08-17T22:20:27.265Z,21.30
2018-08-17T22:22:55.906Z,21.30
2018-08-17T22:25:24.869Z,20.90
2018-08-17T22:27:53.409Z,20.90
2018-08-17T22:30:23.610Z,21.10
2018-08-17T22:32:52.117Z,21.00
2018-08-17T22:35:20.702Z,20.90
2018-08-17T22:37:49.174Z,21.00
2018-08-17T22:40:17.658Z,20.90
2018-08-17T22:42:47.988Z,20.90
2018-08-17T22:45:16.645Z,20.90
2018-08-17T22:47:45.884Z,20.70
2018-08-17T22:50:14.943Z,20.50
2018-08-17T22:52:43.737Z,20.50
2018-08-17T22:55:12.529Z,20.50
2018-08-17T22:57:41.006Z,20.60
2018-08-17T23:00:28.335Z,20.50
2018-08-17T23:02:58.198Z,20.40
2018-08-17T23:05:28.466Z,20.50
2018-08-17T23:07:57.241Z,20.50
2018-08-17T23:10:26.747Z,20.40
2018-08-17T23:12:55.711Z,20.40
2018-08-17T23:15:24.727Z,20.20
2018-08-17T23:17:58.535Z,20.30
2018-08-17T23:20:32.285Z,20.10
2018-08-17T23:23:01.589Z,20.00
2018-08-17T23:25:30.779Z,20.10
2018-08-17T23:27:59.282Z,20.10
2018-08-17T23:30:27.763Z,19.90
2018-08-17T23:32:56.292Z,19.90
2018-08-17T23:35:24.800Z,20.00
2018-08-17T23:37:53.299Z,19.90
2018-08-17T23:40:21.913Z,20.00
2018-08-17T23:42:50.696Z,20.00
2018-08-17T23:45:19.314Z,20.10
2018-08-17T23:47:48.046Z,20.10
2018-08-17T23:50:17.364Z,20.10
2018-08-17T23:52:45.863Z,20.10
2018-08-17T23:55:16.152Z,20.10
2018-08-17T23:57:45.493Z,19.90
